createdAt,value
2022-09-25T00:01:35.413Z,12.50
2022-09-25T00:04:04.399Z,12.50
2022-09-25T00:06:33.889Z,12.50
2022-09-25T00:09:02.988Z,12.50
2022-09-25T00:11:34.005Z,12.50
2022-09-25T00:14:04.471Z,12.60
2022-09-25T00:16:33.782Z,12.60
2022-09-25T00:19:19.789Z,12.60
2022-09-25T00:21:52.745Z,12.60
2022-09-25T00:24:22.151Z,12.70
2022-09-25T00:26:51.094Z,12.70
2022-09-25T00:29:21.481Z,12.70
2022-09-25T00:31:50.229Z,12.70
2022-09-25T00:34:18.549Z,12.70
2022-09-25T00:36:46.809Z,12.80
2022-09-25T00:39:15.761Z,12.80
2022-09-25T00:41:44.395Z,12.80
2022-09-25T00:44:56.690Z,12.80
2022-09-25T00:47:46.341Z,12.90
2022-09-25T00:50:31.624Z,12.80
2022-09-25T00:53:07.861Z,12.70
2022-09-25T00:55:39.293Z,12.70
2022-09-25T00:58:09.001Z,12.70
2022-09-25T01:00:38.887Z,12.80
2022-09-25T01:03:09.678Z,12.70
2022-09-25T01:05:42.874Z,12.70
2022-09-25T01:08:16.281Z,12.70
2022-09-25T01:10:45.037Z,12.70
2022-09-25T01:13:16.548Z,12.70
2022-09-25T01:16:00.625Z,12.60
2022-09-25T01:18:47.591Z,12.50
2022-09-25T01:21:28.531Z,12.50
2022-09-25T01:24:50.149Z,12.50
2022-09-25T01:27:41.875Z,12.50
2022-09-25T01:30:15.331Z,12.40
2022-09-25T01:32:59.903Z,12.50
2022-09-25T01:35:44.743Z,12.50
2022-09-25T01:38:25.672Z,12.60
2022-09-25T01:41:03.495Z,12.60
2022-09-25T01:43:39.631Z,12.60
2022-09-25T01:46:16.436Z,12.60
2022-09-25T01:48:52.239Z,12.50
2022-09-25T01:51:28.558Z,12.50
2022-09-25T01:54:04.815Z,12.40
2022-09-25T01:56:40.802Z,12.40
2022-09-25T01:59:17.863Z,12.30
2022-09-25T02:01:48.550Z,12.30
2022-09-25T02:04:24.037Z,12.30
2022-09-25T02:06:57.184Z,12.30
2022-09-25T02:09:35.647Z,12.20
2022-09-25T02:12:13.905Z,12.20
2022-09-25T02:14:49.811Z,12.20
2022-09-25T02:17:45.249Z,12.20
2022-09-25T02:20:31.238Z,12.10
2022-09-25T02:23:09.774Z,12.10
2022-09-25T02:25:43.983Z,12.00
2022-09-25T02:28:12.584Z,11.90
2022-09-25T02:30:41.075Z,11.80
2022-09-25T02:33:11.905Z,11.70
2022-09-25T02:35:40.255Z,11.60
2022-09-25T02:38:10.116Z,11.60
2022-09-25T02:40:51.154Z,11.50
2022-09-25T02:43:40.615Z,11.40
2022-09-25T02:46:22.650Z,11.30
2022-09-25T02:49:00.235Z,11.30
2022-09-25T02:51:37.771Z,11.20
2022-09-25T02:54:16.121Z,11.10
2022-09-25T02:56:52.953Z,11.10
2022-09-25T02:59:29.806Z,11.00
2022-09-25T03:01:59.876Z,11.00
2022-09-25T03:04:32.199Z,11.00
2022-09-25T03:07:00.552Z,11.00
2022-09-25T03:09:36.039Z,10.90
2022-09-25T03:12:05.398Z,10.90
2022-09-25T03:14:33.832Z,10.90
2022-09-25T03:17:06.746Z,10.90
2022-09-25T03:19:37.051Z,10.90
2022-09-25T03:22:06.050Z,10.80
2022-09-25T03:24:34.827Z,10.80
2022-09-25T03:27:03.068Z,10.80
2022-09-25T03:29:31.335Z,10.80
2022-09-25T03:32:00.587Z,10.80
2022-09-25T03:34:29.498Z,10.80
2022-09-25T03:36:59.097Z,10.80
2022-09-25T03:39:27.640Z,10.80
2022-09-25T03:41:55.897Z,10.80
2022-09-25T03:44:24.197Z,10.80
2022-09-25T03:46:56.536Z,10.80
2022-09-25T03:49:24.783Z,10.80
2022-09-25T03:51:53.568Z,10.80
2022-09-25T03:54:23.254Z,10.70
2022-09-25T03:56:51.542Z,10.80
2022-09-25T03:59:20.344Z,10.80
2022-09-25T04:01:49.199Z,10.80
2022-09-25T04:04:17.472Z,10.90
2022-09-25T04:06:46.266Z,10.90
2022-09-25T04:09:14.918Z,10.90
2022-09-25T04:11:45.053Z,10.90
2022-09-25T04:14:14.699Z,10.90
2022-09-25T04:16:43.353Z,10.90
2022-09-25T04:19:12.481Z,10.90
2022-09-25T04:21:40.720Z,10.90
2022-09-25T04:24:27.560Z,10.90
2022-09-25T04:26:57.652Z,10.80
2022-09-25T04:29:26.223Z,10.80
2022-09-25T04:32:08.586Z,10.80
2022-09-25T04:34:36.892Z,10.90
2022-09-25T04:37:05.160Z,10.80
2022-09-25T04:39:33.413Z,10.80
2022-09-25T04:42:03.156Z,10.80
2022-09-25T04:44:31.516Z,10.80
2022-09-25T04:47:00.172Z,10.80
2022-09-25T04:49:29.277Z,10.70
2022-09-25T04:51:57.515Z,10.60
2022-09-25T04:54:25.772Z,10.60
2022-09-25T04:56:54.242Z,10.70
2022-09-25T04:59:24.168Z,10.60
2022-09-25T05:01:52.483Z,10.60
2022-09-25T05:04:20.888Z,10.70
2022-09-25T05:06:51.446Z,10.80
2022-09-25T05:09:20.094Z,10.80
2022-09-25T05:11:48.875Z,10.80
2022-09-25T05:14:17.287Z,10.80
2022-09-25T05:16:48.345Z,10.80
2022-09-25T05:19:17.018Z,10.90
2022-09-25T05:21:45.697Z,11.00
2022-09-25T05:24:14.147Z,10.90
2022-09-25T05:26:42.745Z,11.00
2022-09-25T05:29:11.043Z,10.90
2022-09-25T05:31:39.325Z,10.90
2022-09-25T05:34:10.571Z,11.00
2022-09-25T05:36:39.466Z,11.00
2022-09-25T05:39:10.957Z,11.10
2022-09-25T05:41:42.485Z,11.10
2022-09-25T05:44:11.105Z,11.10
2022-09-25T05:46:40.397Z,11.20
2022-09-25T05:49:10.802Z,11.20
2022-09-25T05:51:39.305Z,11.30
2022-09-25T05:54:07.768Z,11.30
2022-09-25T05:56:36.011Z,11.30
2022-09-25T05:59:04.472Z,11.30
2022-09-25T06:01:32.771Z,11.40
2022-09-25T06:04:01.051Z,11.60
2022-09-25T06:06:32.709Z,11.80
2022-09-25T06:09:00.959Z,12.00
2022-09-25T06:11:31.970Z,12.10
2022-09-25T06:14:00.228Z,12.20
2022-09-25T06:16:29.052Z,12.30
2022-09-25T06:18:57.380Z,12.40
2022-09-25T06:21:25.786Z,12.40
2022-09-25T06:23:55.839Z,12.50
2022-09-25T06:26:25.812Z,12.60
2022-09-25T06:28:54.441Z,12.70
2022-09-25T06:31:22.890Z,12.90
2022-09-25T06:33:52.104Z,13.10
2022-09-25T06:36:20.388Z,13.30
2022-09-25T06:38:49.424Z,13.50
2022-09-25T06:41:18.993Z,13.70
2022-09-25T06:43:50.986Z,14.00
2022-09-25T06:46:20.447Z,14.10
2022-09-25T06:48:54.152Z,14.30
2022-09-25T06:51:23.869Z,14.40
2022-09-25T06:53:54.053Z,14.50
2022-09-25T06:56:23.726Z,14.30
2022-09-25T06:58:52.098Z,14.10
2022-09-25T07:01:20.438Z,14.10
2022-09-25T07:03:49.763Z,14.20
2022-09-25T07:06:20.929Z,14.40
2022-09-25T07:08:51.021Z,14.70
2022-09-25T07:11:22.243Z,15.00
2022-09-25T07:13:54.979Z,15.20
2022-09-25T07:16:28.512Z,15.30
2022-09-25T07:19:00.654Z,15.50
2022-09-25T07:21:32.056Z,15.60
2022-09-25T07:24:00.375Z,15.60
2022-09-25T07:26:33.836Z,15.90
2022-09-25T07:29:08.014Z,16.30
2022-09-25T07:31:37.789Z,16.90
2022-09-25T07:34:09.309Z,17.50
2022-09-25T07:36:39.231Z,17.80
2022-09-25T07:39:07.902Z,18.30
2022-09-25T07:41:37.464Z,18.90
2022-09-25T07:46:55.728Z,19.50
2022-09-25T07:49:24.664Z,19.80
2022-09-25T07:51:53.583Z,19.90
2022-09-25T07:54:21.926Z,20.20
2022-09-25T07:56:50.180Z,20.30
2022-09-25T07:59:20.478Z,20.40
2022-09-25T08:01:53.655Z,20.40
2022-09-25T08:04:22.770Z,20.40
2022-09-25T08:06:51.038Z,20.00
2022-09-25T08:09:19.700Z,19.70
2022-09-25T08:11:48.120Z,19.70
2022-09-25T08:14:16.664Z,20.10
2022-09-25T08:16:47.486Z,20.70
2022-09-25T08:19:18.268Z,20.50
2022-09-25T08:21:46.682Z,20.70
2022-09-25T08:24:15.025Z,21.00
2022-09-25T08:26:43.590Z,20.90
2022-09-25T08:29:11.996Z,21.50
2022-09-25T08:31:40.994Z,21.90
2022-09-25T08:34:36.274Z,22.10
2022-09-25T08:37:02.774Z,21.90
2022-09-25T08:39:31.062Z,20.70
2022-09-25T08:42:00.634Z,20.60
2022-09-25T08:44:38.169Z,20.80
2022-09-25T08:47:32.150Z,20.50
2022-09-25T08:50:09.893Z,20.10
2022-09-25T08:52:43.065Z,19.50
2022-09-25T08:55:18.015Z,19.20
2022-09-25T08:57:47.832Z,18.90
2022-09-25T09:00:21.575Z,18.90
2022-09-25T09:02:56.028Z,19.10
2022-09-25T09:05:31.728Z,19.10
2022-09-25T09:08:05.896Z,19.10
2022-09-25T09:10:41.836Z,19.00
2022-09-25T09:13:21.804Z,18.80
2022-09-25T09:16:02.438Z,18.60
2022-09-25T09:18:37.167Z,18.60
2022-09-25T09:21:15.453Z,18.10
2022-09-25T09:23:52.489Z,17.70
2022-09-25T09:26:30.229Z,17.80
2022-09-25T09:29:18.745Z,17.70
2022-09-25T09:31:59.711Z,17.80
2022-09-25T09:35:12.703Z,17.60
2022-09-25T09:38:04.839Z,17.70
2022-09-25T09:41:02.880Z,17.70
2022-09-25T09:43:57.803Z,17.50
2022-09-25T09:46:40.303Z,17.30
2022-09-25T09:49:19.541Z,17.20
2022-09-25T09:51:56.923Z,17.20
2022-09-25T09:54:36.628Z,17.20
2022-09-25T09:57:20.252Z,17.40
2022-09-25T10:00:01.958Z,17.30
2022-09-25T10:02:44.474Z,17.30
2022-09-25T10:05:21.491Z,17.30
2022-09-25T10:07:52.168Z,17.30
2022-09-25T10:10:24.703Z,17.40
2022-09-25T10:12:56.819Z,17.60
2022-09-25T10:15:47.216Z,17.60
2022-09-25T10:18:17.965Z,17.30
2022-09-25T10:20:53.716Z,17.00
2022-09-25T10:23:40.727Z,16.80
2022-09-25T10:26:29.625Z,16.90
2022-09-25T10:29:00.235Z,17.00
2022-09-25T10:31:33.594Z,17.00
2022-09-25T10:34:06.545Z,17.10
2022-09-25T10:36:42.049Z,16.90
2022-09-25T10:39:46.231Z,16.70
2022-09-25T10:42:41.004Z,16.70
2022-09-25T10:45:32.090Z,16.70
2022-09-25T10:48:18.393Z,16.80
2022-09-25T10:51:05.813Z,16.60
2022-09-25T10:53:34.383Z,16.80
2022-09-25T10:56:08.452Z,16.90
2022-09-25T10:58:44.167Z,17.10
2022-09-25T11:01:16.207Z,17.30
2022-09-25T11:03:55.079Z,17.50
2022-09-25T11:06:29.511Z,17.70
2022-09-25T11:09:15.145Z,17.80
2022-09-25T11:11:46.027Z,17.90
2022-09-25T11:14:28.606Z,17.80
2022-09-25T11:16:58.325Z,17.70
2022-09-25T11:19:30.040Z,17.60
2022-09-25T11:22:09.085Z,17.50
2022-09-25T11:24:50.713Z,17.30
2022-09-25T11:27:27.428Z,17.10
2022-09-25T11:30:07.050Z,17.00
2022-09-25T11:32:50.335Z,17.10
2022-09-25T11:35:40.673Z,17.20
2022-09-25T11:38:44.379Z,17.30
2022-09-25T11:41:26.020Z,17.30
2022-09-25T11:44:19.971Z,17.40
2022-09-25T11:47:02.248Z,17.50
2022-09-25T11:49:36.108Z,17.50
2022-09-25T11:52:32.557Z,17.70
2022-09-25T11:55:43.638Z,17.80
2022-09-25T11:58:34.924Z,17.70
2022-09-25T12:01:22.573Z,17.60
2022-09-25T12:04:15.167Z,17.60
2022-09-25T12:07:05.698Z,17.60
2022-09-25T12:10:03.998Z,17.70
2022-09-25T12:12:47.217Z,17.60
2022-09-25T12:15:25.336Z,17.60
2022-09-25T12:18:08.062Z,17.50
2022-09-25T12:20:49.663Z,17.30
2022-09-25T12:23:30.877Z,17.30
2022-09-25T12:26:23.742Z,17.20
2022-09-25T12:29:15.376Z,17.20
2022-09-25T12:31:59.260Z,17.20
2022-09-25T12:34:53.072Z,17.20
2022-09-25T12:37:43.510Z,17.30
2022-09-25T12:40:24.008Z,17.30
2022-09-25T12:43:02.887Z,17.30
2022-09-25T12:45:40.140Z,17.20
2022-09-25T12:48:18.237Z,17.20
2022-09-25T12:51:04.297Z,17.40
2022-09-25T12:53:40.723Z,17.60
2022-09-25T12:56:16.931Z,17.80
2022-09-25T12:59:14.273Z,17.80
2022-09-25T13:01:57.379Z,17.70
2022-09-25T13:04:49.883Z,17.60
2022-09-25T13:07:25.757Z,17.40
2022-09-25T13:09:55.491Z,17.40
2022-09-25T13:12:35.171Z,17.40
2022-09-25T13:15:11.168Z,17.40
2022-09-25T13:17:40.965Z,17.40
2022-09-25T13:20:48.969Z,17.10
2022-09-25T13:23:29.161Z,16.90
2022-09-25T13:26:02.769Z,16.80
2022-09-25T13:28:36.801Z,16.80
2022-09-25T13:31:10.503Z,16.90
2022-09-25T13:33:49.902Z,16.90
2022-09-25T13:36:37.987Z,17.00
2022-09-25T13:39:37.072Z,16.70
2022-09-25T13:42:16.992Z,16.50
2022-09-25T13:45:26.759Z,16.40
2022-09-25T13:48:07.145Z,16.50
2022-09-25T13:50:39.853Z,16.60
2022-09-25T13:53:29.620Z,16.60
2022-09-25T13:56:25.269Z,16.50
2022-09-25T13:59:32.176Z,16.50
2022-09-25T14:02:49.197Z,16.50
2022-09-25T14:05:22.227Z,16.50
2022-09-25T14:08:01.620Z,16.50
2022-09-25T14:10:30.797Z,16.50
2022-09-25T14:13:06.804Z,16.50
2022-09-25T14:15:40.331Z,16.60
2022-09-25T14:18:19.656Z,16.70
2022-09-25T14:20:51.387Z,16.80
2022-09-25T14:23:27.168Z,16.80
2022-09-25T14:26:00.800Z,16.80
2022-09-25T14:28:32.660Z,16.80
2022-09-25T14:31:24.360Z,16.70
2022-09-25T14:34:30.571Z,16.70
2022-09-25T14:37:25.568Z,16.40
2022-09-25T14:40:20.462Z,16.40
2022-09-25T14:43:16.545Z,16.30
2022-09-25T14:46:01.355Z,16.20
2022-09-25T14:48:38.759Z,16.10
2022-09-25T14:51:14.810Z,16.20
2022-09-25T14:53:50.292Z,16.10
2022-09-25T14:56:20.283Z,16.00
2022-09-25T14:58:53.952Z,16.00
2022-09-25T15:01:29.418Z,16.00
2022-09-25T15:04:03.609Z,16.00
2022-09-25T15:06:35.572Z,16.00
2022-09-25T15:09:27.926Z,15.90
2022-09-25T15:11:56.545Z,15.90
2022-09-25T15:14:24.951Z,16.00
2022-09-25T15:17:11.443Z,16.00
2022-09-25T15:19:45.611Z,16.00
2022-09-25T15:22:23.071Z,15.90
2022-09-25T15:24:58.266Z,15.90
2022-09-25T15:27:28.336Z,15.80
2022-09-25T15:30:00.090Z,15.70
2022-09-25T15:32:36.721Z,15.60
2022-09-25T15:35:19.460Z,15.50
2022-09-25T15:37:50.078Z,15.40
2022-09-25T15:40:25.553Z,15.40
2022-09-25T15:43:01.153Z,15.40
2022-09-25T15:45:46.099Z,15.40
2022-09-25T15:48:24.744Z,15.40
2022-09-25T15:50:55.130Z,15.40
2022-09-25T15:53:32.077Z,14.70
2022-09-25T15:56:18.366Z,15.30
2022-09-25T15:58:51.035Z,15.30
2022-09-25T16:01:43.046Z,15.30
2022-09-25T16:04:38.766Z,15.30
2022-09-25T16:07:24.033Z,15.30
2022-09-25T16:09:56.449Z,15.20
2022-09-25T16:12:31.611Z,15.20
2022-09-25T16:15:00.745Z,15.20
2022-09-25T16:17:39.902Z,15.20
2022-09-25T16:20:31.344Z,15.10
2022-09-25T16:23:04.453Z,15.10
2022-09-25T16:25:38.140Z,15.00
2022-09-25T16:28:10.858Z,15.00
2022-09-25T16:30:39.363Z,15.00
2022-09-25T16:33:23.283Z,15.00
2022-09-25T16:36:10.636Z,15.00
2022-09-25T16:38:41.326Z,15.00
2022-09-25T16:41:22.941Z,15.00
2022-09-25T16:44:16.035Z,15.00
2022-09-25T16:46:47.011Z,14.90
2022-09-25T16:49:15.267Z,14.90
2022-09-25T16:51:46.054Z,14.90
2022-09-25T16:54:18.174Z,14.90
2022-09-25T16:56:49.508Z,14.90
2022-09-25T16:59:21.705Z,14.80
2022-09-25T17:01:53.066Z,14.70
2022-09-25T17:04:24.905Z,14.70
2022-09-25T17:06:54.248Z,14.70
2022-09-25T17:09:22.507Z,14.70
2022-09-25T17:11:57.916Z,14.70
2022-09-25T17:14:29.552Z,14.70
2022-09-25T17:16:58.978Z,14.60
2022-09-25T17:19:28.901Z,14.60
2022-09-25T17:21:58.045Z,14.60
2022-09-25T17:24:30.485Z,14.50
2022-09-25T17:27:01.882Z,14.50
2022-09-25T17:29:30.177Z,14.50
2022-09-25T17:32:00.122Z,14.40
2022-09-25T17:34:32.086Z,14.50
2022-09-25T17:37:00.485Z,14.50
2022-09-25T17:39:29.300Z,14.50
2022-09-25T17:41:57.905Z,14.50
2022-09-25T17:44:28.702Z,14.40
2022-09-25T17:46:57.770Z,14.40
2022-09-25T17:49:26.148Z,14.40
2022-09-25T17:51:54.571Z,14.30
2022-09-25T17:54:23.236Z,14.20
2022-09-25T17:56:51.919Z,14.20
2022-09-25T17:59:20.589Z,14.20
2022-09-25T18:01:51.140Z,14.20
2022-09-25T18:04:22.616Z,14.20
2022-09-25T18:06:51.971Z,14.20
2022-09-25T18:09:21.260Z,14.10
2022-09-25T18:11:49.555Z,14.10
2022-09-25T18:14:18.226Z,14.10
2022-09-25T18:16:46.835Z,14.10
2022-09-25T18:19:36.997Z,14.10
2022-09-25T18:22:19.447Z,14.10
2022-09-25T18:24:54.177Z,14.10
2022-09-25T18:27:23.548Z,14.20
2022-09-25T18:29:52.215Z,14.20
2022-09-25T18:32:20.525Z,14.10
2022-09-25T18:34:50.721Z,14.10
2022-09-25T18:37:19.545Z,14.10
2022-09-25T18:39:48.085Z,14.10
2022-09-25T18:42:16.440Z,14.20
2022-09-25T18:44:44.752Z,14.20
2022-09-25T18:47:13.205Z,14.30
2022-09-25T18:49:42.288Z,14.40
2022-09-25T18:52:11.860Z,14.30
2022-09-25T18:54:42.014Z,14.30
2022-09-25T18:57:11.133Z,14.40
2022-09-25T18:59:39.717Z,14.40
2022-09-25T19:02:19.344Z,14.40
2022-09-25T19:04:48.708Z,14.30
2022-09-25T19:07:19.528Z,14.40
2022-09-25T19:09:48.599Z,14.30
2022-09-25T19:12:17.266Z,14.30
2022-09-25T19:14:47.259Z,14.30
2022-09-25T19:17:17.144Z,14.30
2022-09-25T19:19:45.794Z,14.20
2022-09-25T19:22:19.551Z,14.20
2022-09-25T19:24:50.591Z,14.10
2022-09-25T19:27:19.947Z,14.10
2022-09-25T19:29:48.932Z,14.10
2022-09-25T19:32:19.257Z,14.00
2022-09-25T19:34:47.867Z,14.10
2022-09-25T19:37:18.547Z,14.10
2022-09-25T19:40:04.454Z,14.00
2022-09-25T19:42:33.613Z,14.00
2022-09-25T19:45:02.128Z,14.00
2022-09-25T19:47:30.495Z,14.00
2022-09-25T19:49:59.476Z,14.00
2022-09-25T19:52:29.274Z,14.00
2022-09-25T19:54:57.537Z,13.90
2022-09-25T19:57:25.881Z,13.90
2022-09-25T19:59:54.936Z,13.90
2022-09-25T20:02:23.267Z,13.80
2022-09-25T20:04:51.577Z,13.80
2022-09-25T20:07:19.852Z,13.80
2022-09-25T20:09:49.571Z,13.80
2022-09-25T20:12:17.837Z,13.70
2022-09-25T20:14:46.423Z,13.70
2022-09-25T20:17:15.188Z,13.60
2022-09-25T20:19:43.476Z,13.60
2022-09-25T20:22:12.139Z,13.50
2022-09-25T20:24:40.773Z,13.50
2022-09-25T20:27:10.811Z,13.50
2022-09-25T20:29:39.529Z,13.60
2022-09-25T20:32:07.804Z,13.60
2022-09-25T20:34:36.093Z,13.60
2022-09-25T20:37:04.598Z,13.60
2022-09-25T20:39:32.943Z,13.60
2022-09-25T20:42:01.316Z,13.60
2022-09-25T20:44:31.283Z,13.60
2022-09-25T20:46:59.937Z,13.70
2022-09-25T20:49:28.859Z,13.60
2022-09-25T20:51:57.114Z,13.60
2022-09-25T20:54:26.686Z,13.50
2022-09-25T20:56:55.537Z,13.50
2022-09-25T20:59:25.197Z,13.50
2022-09-25T21:01:55.937Z,13.40
2022-09-25T21:04:24.381Z,13.50
2022-09-25T21:06:52.617Z,13.50
2022-09-25T21:09:25.736Z,13.40
2022-09-25T21:11:54.938Z,13.30
2022-09-25T21:14:26.128Z,13.20
2022-09-25T21:16:57.149Z,13.20
2022-09-25T21:19:26.161Z,13.10
2022-09-25T21:21:54.392Z,13.00
2022-09-25T21:24:23.591Z,13.00
2022-09-25T21:26:51.891Z,12.90
2022-09-25T21:29:20.711Z,12.80
2022-09-25T21:31:50.885Z,12.70
2022-09-25T21:34:21.355Z,12.60
2022-09-25T21:36:50.005Z,12.60
2022-09-25T21:39:21.407Z,12.50
2022-09-25T21:41:50.605Z,12.50
2022-09-25T21:44:23.420Z,12.40
2022-09-25T21:46:52.025Z,12.50
2022-09-25T21:49:22.981Z,12.50
2022-09-25T21:51:52.340Z,12.40
2022-09-25T21:54:20.789Z,12.40
2022-09-25T21:56:50.004Z,12.40
2022-09-25T21:59:19.500Z,12.40
2022-09-25T22:01:47.784Z,12.40
2022-09-25T22:04:17.150Z,12.50
2022-09-25T22:06:48.795Z,12.50
2022-09-25T22:09:20.067Z,12.50
2022-09-25T22:11:50.367Z,12.50
2022-09-25T22:14:20.363Z,12.50
2022-09-25T22:16:52.010Z,12.60
2022-09-25T22:19:23.000Z,12.60
2022-09-25T22:21:55.794Z,12.60
2022-09-25T22:24:24.864Z,12.70
2022-09-25T22:26:56.369Z,12.70
2022-09-25T22:29:25.457Z,12.70
2022-09-25T22:31:54.549Z,12.70
2022-09-25T22:34:25.874Z,12.70
2022-09-25T22:36:59.842Z,12.70
2022-09-25T22:39:30.546Z,12.60
2022-09-25T22:41:59.700Z,12.60
2022-09-25T22:44:28.190Z,12.80
2022-09-25T22:46:57.188Z,12.80
2022-09-25T22:49:25.793Z,12.80
2022-09-25T22:51:55.565Z,12.80
2022-09-25T22:54:24.219Z,12.80
2022-09-25T22:56:53.815Z,12.80
2022-09-25T22:59:22.140Z,12.80
2022-09-25T23:01:53.663Z,12.90
2022-09-25T23:04:24.222Z,12.90
2022-09-25T23:06:53.018Z,12.90
2022-09-25T23:09:25.930Z,12.80
2022-09-25T23:11:56.298Z,12.80
2022-09-25T23:14:27.370Z,12.70
2022-09-25T23:16:56.541Z,12.70
2022-09-25T23:19:25.775Z,12.70
2022-09-25T23:21:55.307Z,12.70
2022-09-25T23:24:26.459Z,12.70
2022-09-25T23:26:55.223Z,12.70
2022-09-25T23:29:24.307Z,12.60
2022-09-25T23:31:53.136Z,12.60
2022-09-25T23:34:22.069Z,12.60
2022-09-25T23:36:50.652Z,12.60
2022-09-25T23:39:21.275Z,12.60
2022-09-25T23:41:51.580Z,12.50
2022-09-25T23:44:19.830Z,12.50
2022-09-25T23:46:48.576Z,12.50
2022-09-25T23:49:17.128Z,12.50
2022-09-25T23:51:46.224Z,12.40
2022-09-25T23:54:15.239Z,12.30
2022-09-25T23:56:43.831Z,12.30
2022-09-25T23:59:14.467Z,12.30
